This is the latest recevied weather packets stored in our database for station/object K7GFH-13. If no packets are shown the sender has not sent any weather packets the latest 10 day(s).
| Time | Temp. | Humidity | Pressure | Rain* | Wind** | Luminosity | Snow |
|---|---|---|---|---|---|---|---|
| 1778028584 | 16.11° C | 75% | 1017.4 hPa | 0 mm | - | 65 W/m² | - |
| 1778027681 | 16.11° C | 75% | 1017.4 hPa | 0 mm | - | 68 W/m² | - |
| 1778026780 | 16.11° C | 75% | 1017.3 hPa | 0 mm | - | 78 W/m² | - |
| 1778025878 | 16.11° C | 75% | 1017.6 hPa | 0 mm | - | 77 W/m² | - |
| 1778024975 | 16.67° C | 73% | 1017.7 hPa | 0 mm | - | 100 W/m² | - |
| 1778024073 | 16.11° C | 73% | 1017.7 hPa | 0 mm | - | 127 W/m² | - |
| 1778023170 | 16.67° C | 72% | 1017.7 hPa | 0 mm | - | 167 W/m² | - |
| 1778022269 | 16.67° C | 73% | 1017.7 hPa | 0 mm | - | 184 W/m² | - |
| 1778021370 | 16.11° C | 73% | 1017.9 hPa | 0 mm | - | 198 W/m² | - |
| 1778020467 | 16.67° C | 72% | 1018 hPa | 0 mm | - | 248 W/m² | - |
| 1778019568 | 16.67° C | 71% | 1018.1 hPa | 0 mm | - | 269 W/m² | - |
| 1778018665 | 16.11° C | 73% | 1018.1 hPa | 0 mm | - | 269 W/m² | - |
| 1778017763 | 16.11° C | 72% | 1018 hPa | 0 mm | - | 240 W/m² | - |
| 1778016861 | 16.67° C | 72% | 1018.3 hPa | 0 mm | - | 224 W/m² | - |
| 1778015956 | 16.67° C | 72% | 1018 hPa | 0 mm | - | 290 W/m² | - |
| 1778015054 | 16.67° C | 70% | 1018.2 hPa | 0 mm | - | 617 W/m² | - |
| 1778014151 | 15.56° C | 76% | 1018.4 hPa | 0 mm | - | 325 W/m² | - |
| 1778013248 | 15° C | 79% | 1018.4 hPa | 0 mm | - | 249 W/m² | - |
| 1778012348 | 14.44° C | 78% | 1018.5 hPa | 0 mm | - | 336 W/m² | - |
| 1778011446 | 15° C | 76% | 1018.6 hPa | 0 mm | - | 235 W/m² | - |
| 1778010543 | 15° C | 75% | 1018.6 hPa | 0 mm | - | 247 W/m² | - |
| 1778009638 | 15.56° C | 76% | 1018.6 hPa | 0 mm | - | 350 W/m² | - |
| 1778008736 | 14.44° C | 79% | 1018.8 hPa | 0 mm | - | 349 W/m² | - |
| 1778007833 | 13.89° C | 83% | 1018.6 hPa | 0 mm | - | 326 W/m² | - |
| 1778006932 | 13.89° C | 83% | 1018.8 hPa | 0 mm | - | 273 W/m² | - |
* Rain latest hour (hover to see other rain measurements)
** Current wind speed in m/s (hover to see current wind gust speed)